Time;durP1;ratioP1;P1;durP2;ratioP2;P2;SDS_P1;SDS_P2;PMS_P1;PMS_P2;Temp;Humidity;BMP_temperature;BMP_pressure;BME280_temperature;BME280_humidity;BME280_pressure;Samples;Min_cycle;Max_cycle;Signal;HPM_P1;HPM_P2
2023/06/14 00:01:24;;;;;;;2.92;1.33;;;20.30;28.00;;;;;;2577045;53;21010;-71
2023/06/14 00:03:50;;;;;;;2.53;1.10;;;20.20;28.00;;;;;;2576790;53;20990;-70
2023/06/14 00:06:18;;;;;;;2.37;1.10;;;20.20;28.10;;;;;;2576598;53;20983;-71
2023/06/14 00:08:44;;;;;;;2.42;1.30;;;20.20;28.10;;;;;;2316076;55;20952;-70
2023/06/14 00:11:10;;;;;;;2.60;1.17;;;20.10;28.20;;;;;;2544331;53;21019;-70
2023/06/14 00:13:38;;;;;;;4.05;1.10;;;20.00;28.30;;;;;;2332733;55;20959;-71
2023/06/14 00:16:04;;;;;;;3.90;1.48;;;20.00;28.40;;;;;;2577390;53;20931;-71
2023/06/14 00:18:30;;;;;;;2.30;1.27;;;20.00;28.60;;;;;;2576722;53;21478;-70
2023/06/14 00:20:57;;;;;;;3.20;1.15;;;20.00;28.70;;;;;;2577366;53;20994;-70
2023/06/14 00:23:23;;;;;;;2.78;1.10;;;20.00;28.80;;;;;;2553316;53;21001;-71
2023/06/14 00:25:50;;;;;;;2.60;1.30;;;19.90;28.80;;;;;;2533667;54;21763;-70
2023/06/14 00:28:16;;;;;;;2.35;1.00;;;19.90;28.90;;;;;;2574105;53;20942;-71
2023/06/14 00:30:46;;;;;;;2.70;1.20;;;19.90;29.00;;;;;;2573628;53;20958;-70
2023/06/14 00:33:15;;;;;;;2.95;1.12;;;19.90;29.00;;;;;;2575797;53;20938;-71
2023/06/14 00:35:44;;;;;;;2.45;1.20;;;19.80;28.90;;;;;;2575606;53;20966;-70
2023/06/14 00:38:10;;;;;;;2.60;1.30;;;19.80;29.00;;;;;;2561848;53;21823;-70
2023/06/14 00:40:37;;;;;;;2.65;1.42;;;19.70;29.00;;;;;;2306184;54;20951;-72
2023/06/14 00:43:03;;;;;;;3.60;1.50;;;19.70;29.30;;;;;;2576528;53;20938;-71
2023/06/14 00:45:31;;;;;;;2.72;1.40;;;19.70;29.40;;;;;;2333214;55;20985;-69
2023/06/14 00:47:59;;;;;;;2.40;1.30;;;19.60;29.30;;;;;;2576336;53;21326;-69
2023/06/14 00:50:29;;;;;;;2.10;0.90;;;19.60;29.40;;;;;;2331411;55;21005;-70
2023/06/14 00:52:56;;;;;;;2.30;1.00;;;19.50;29.30;;;;;;2570675;53;21694;-70
2023/06/14 00:55:23;;;;;;;3.60;1.00;;;19.50;29.30;;;;;;2569645;53;20982;-69
2023/06/14 00:57:52;;;;;;;2.20;1.00;;;19.50;29.40;;;;;;2577089;53;21700;-69
2023/06/14 01:00:21;;;;;;;2.20;1.00;;;19.40;29.40;;;;;;2574560;53;20942;-70
2023/06/14 01:02:52;;;;;;;3.08;1.27;;;19.40;29.50;;;;;;2331846;54;20930;-71
2023/06/14 01:05:18;;;;;;;2.62;1.20;;;19.30;29.40;;;;;;2576097;53;21277;-70
2023/06/14 01:10:58;;;;;;;2.40;1.10;;;19.30;29.50;;;;;;2571190;53;21395;-69
2023/06/14 01:13:35;;;;;;;2.10;0.80;;;19.20;29.60;;;;;;2576906;53;20971;-70
2023/06/14 01:16:04;;;;;;;2.35;0.98;;;19.10;29.50;;;;;;2577431;53;20954;-69
2023/06/14 01:18:32;;;;;;;2.53;1.10;;;19.00;29.40;;;;;;2548493;53;20973;-70
2023/06/14 01:20:58;;;;;;;2.70;1.10;;;18.90;29.50;;;;;;2564883;53;20974;-69
2023/06/14 01:23:25;;;;;;;3.60;1.20;;;18.90;29.60;;;;;;2570151;53;20983;-68
2023/06/14 01:25:55;;;;;;;2.33;1.10;;;18.80;29.70;;;;;;2574798;53;21419;-70
2023/06/14 01:28:24;;;;;;;2.05;0.88;;;18.80;29.80;;;;;;2332833;54;20934;-69
2023/06/14 01:30:53;;;;;;;2.33;1.08;;;18.70;29.80;;;;;;2333755;55;21384;-70
2023/06/14 01:33:22;;;;;;;2.33;1.02;;;18.70;30.00;;;;;;2577594;53;20930;-69
2023/06/14 01:35:50;;;;;;;2.10;0.95;;;18.60;30.00;;;;;;2577734;53;20942;-69
2023/06/14 01:38:24;;;;;;;2.40;1.10;;;18.60;30.00;;;;;;2561433;53;20975;-69
2023/06/14 01:40:52;;;;;;;3.00;1.10;;;18.50;30.00;;;;;;2557634;53;21066;-69
2023/06/14 01:43:19;;;;;;;2.28;1.08;;;18.50;30.10;;;;;;2550587;53;20990;-69
2023/06/14 01:45:47;;;;;;;2.62;1.15;;;18.50;30.20;;;;;;2324544;54;21658;-70
2023/06/14 01:48:13;;;;;;;2.95;1.42;;;18.40;30.30;;;;;;2577095;53;20970;-68
2023/06/14 01:50:40;;;;;;;2.40;1.20;;;18.30;30.50;;;;;;2576172;53;20974;-69
2023/06/14 01:53:10;;;;;;;3.35;1.20;;;18.30;30.60;;;;;;2557561;53;20963;-69
2023/06/14 01:55:43;;;;;;;4.10;1.33;;;18.20;30.50;;;;;;2560123;53;22081;-68
2023/06/14 01:58:09;;;;;;;2.83;1.40;;;18.20;30.60;;;;;;2576925;53;20927;-69
2023/06/14 02:00:36;;;;;;;3.37;1.35;;;18.20;30.70;;;;;;2575890;53;20954;-69
2023/06/14 02:03:04;;;;;;;2.70;1.30;;;18.10;30.80;;;;;;2560657;53;20992;-69
2023/06/14 02:05:30;;;;;;;3.08;1.25;;;18.10;30.90;;;;;;2538341;54;20916;-68
2023/06/14 02:07:59;;;;;;;3.17;1.60;;;18.00;31.00;;;;;;2561049;53;20963;-68
2023/06/14 02:10:26;;;;;;;2.97;1.33;;;18.00;31.30;;;;;;2313029;54;20994;-69
2023/06/14 02:12:52;;;;;;;4.22;1.50;;;18.00;31.30;;;;;;2577575;53;20949;-69
2023/06/14 02:15:19;;;;;;;3.05;1.33;;;17.90;31.40;;;;;;2333053;55;20998;-69
2023/06/14 02:17:49;;;;;;;2.92;1.40;;;18.00;31.50;;;;;;2333249;55;21451;-70
2023/06/14 02:20:15;;;;;;;2.70;1.45;;;17.90;31.50;;;;;;2577095;53;21003;-70
2023/06/14 02:22:42;;;;;;;3.62;1.80;;;17.80;31.50;;;;;;2576857;53;20939;-68
2023/06/14 02:25:08;;;;;;;3.58;1.35;;;17.80;31.60;;;;;;2555759;53;21440;-68
2023/06/14 02:27:35;;;;;;;3.03;1.42;;;17.80;32.20;;;;;;2561993;53;20998;-69
2023/06/14 02:30:02;;;;;;;2.65;1.30;;;17.70;31.60;;;;;;2333932;55;20967;-69
2023/06/14 02:32:28;;;;;;;3.10;1.15;;;17.70;31.70;;;;;;2576607;53;21774;-70
2023/06/14 02:35:03;;;;;;;3.78;1.62;;;17.60;31.70;;;;;;2545797;53;20911;-69
2023/06/14 02:37:30;;;;;;;2.90;1.35;;;17.60;32.10;;;;;;2577279;53;20950;-68
2023/06/14 02:39:57;;;;;;;3.05;1.40;;;17.60;32.30;;;;;;2574017;53;20944;-70
2023/06/14 02:42:23;;;;;;;5.43;1.55;;;17.60;32.30;;;;;;2333719;55;20938;-68
2023/06/14 02:44:51;;;;;;;4.00;1.70;;;17.60;32.40;;;;;;2332635;55;21829;-68
2023/06/14 02:47:18;;;;;;;2.92;1.58;;;17.50;32.40;;;;;;2332527;55;20923;-68
2023/06/14 02:49:46;;;;;;;5.78;1.67;;;17.50;32.50;;;;;;2333300;55;20986;-70
2023/06/14 02:52:13;;;;;;;4.45;1.87;;;17.40;32.70;;;;;;2332827;54;21633;-69
2023/06/14 02:54:41;;;;;;;3.75;1.77;;;17.40;32.80;;;;;;2567138;53;20944;-70
2023/06/14 02:57:10;;;;;;;3.20;1.42;;;17.50;32.80;;;;;;2553308;53;20996;-68
2023/06/14 02:59:36;;;;;;;4.45;1.77;;;17.30;32.70;;;;;;2566678;53;21761;-69
2023/06/14 03:02:04;;;;;;;3.03;1.40;;;17.30;32.70;;;;;;2333034;55;20975;-68
2023/06/14 03:04:36;;;;;;;3.45;1.70;;;17.30;32.80;;;;;;2577023;53;20947;-69
2023/06/14 03:07:12;;;;;;;3.12;1.83;;;17.20;33.10;;;;;;2563927;53;20959;-70
2023/06/14 03:09:38;;;;;;;3.42;1.70;;;17.20;33.20;;;;;;2554561;53;21025;-68
2023/06/14 03:12:06;;;;;;;3.78;1.45;;;17.20;33.20;;;;;;2577088;53;20958;-69
2023/06/14 03:14:36;;;;;;;2.95;1.60;;;17.10;33.20;;;;;;2332888;54;20938;-68
2023/06/14 03:17:04;;;;;;;2.83;1.33;;;17.00;33.20;;;;;;2573334;53;20934;-68
2023/06/14 03:19:30;;;;;;;3.50;1.45;;;17.00;33.20;;;;;;2549225;53;20938;-67
2023/06/14 03:21:57;;;;;;;2.87;1.40;;;17.00;33.30;;;;;;2576765;53;21842;-69
2023/06/14 03:24:36;;;;;;;3.62;1.50;;;16.90;33.30;;;;;;2331182;55;21018;-69
2023/06/14 03:27:03;;;;;;;2.55;1.33;;;16.90;33.40;;;;;;2549832;53;20999;-68
2023/06/14 03:29:29;;;;;;;2.40;1.27;;;16.90;33.30;;;;;;2572489;53;21659;-68
2023/06/14 03:32:02;;;;;;;3.00;1.45;;;16.90;33.40;;;;;;2577243;53;20942;-67
2023/06/14 03:34:28;;;;;;;3.08;1.40;;;16.80;33.60;;;;;;2333661;54;22003;-68
2023/06/14 03:36:55;;;;;;;2.90;1.40;;;16.80;33.50;;;;;;2332857;54;20934;-67
2023/06/14 03:39:21;;;;;;;2.97;1.33;;;16.80;34.20;;;;;;2575152;53;21488;-71
2023/06/14 03:41:48;;;;;;;2.83;1.48;;;16.80;33.60;;;;;;2309751;55;21765;-68
2023/06/14 03:44:17;;;;;;;3.92;1.40;;;16.70;33.70;;;;;;2548629;54;21021;-68
2023/06/14 03:46:43;;;;;;;2.85;1.48;;;16.70;33.80;;;;;;2548447;54;21024;-67
2023/06/14 03:49:10;;;;;;;3.12;1.70;;;16.60;33.80;;;;;;2548550;54;20961;-68
2023/06/14 03:51:40;;;;;;;3.58;1.80;;;16.70;34.10;;;;;;2547671;54;20989;-68
2023/06/14 03:54:07;;;;;;;3.00;1.50;;;16.60;34.10;;;;;;2546140;54;20933;-68
2023/06/14 03:56:52;;;;;;;2.75;1.40;;;16.50;34.00;;;;;;2514046;54;21406;-71
2023/06/14 03:59:21;;;;;;;3.35;1.50;;;16.50;34.00;;;;;;2548953;53;20918;-72
2023/06/14 04:01:48;;;;;;;3.12;1.52;;;16.50;34.10;;;;;;2309862;55;21001;-70
2023/06/14 04:04:16;;;;;;;2.95;1.60;;;16.40;34.10;;;;;;2561009;53;21754;-71
2023/06/14 04:06:42;;;;;;;3.58;1.85;;;16.40;34.40;;;;;;2310638;55;21064;-70
2023/06/14 04:09:09;;;;;;;3.95;2.33;;;16.40;34.90;;;;;;2538187;54;21871;-70
2023/06/14 04:11:36;;;;;;;3.50;1.83;;;16.40;35.30;;;;;;2575100;53;21078;-71
2023/06/14 04:14:03;;;;;;;4.00;2.00;;;16.40;36.10;;;;;;2560566;53;20924;-72
2023/06/14 04:16:29;;;;;;;3.25;1.80;;;16.40;35.50;;;;;;2309740;54;20980;-72
2023/06/14 04:18:57;;;;;;;3.17;1.70;;;16.40;35.50;;;;;;2309828;55;20925;-70
2023/06/14 04:21:24;;;;;;;3.15;1.77;;;16.40;36.20;;;;;;2518402;53;21733;-71
2023/06/14 04:23:52;;;;;;;4.55;1.40;;;16.40;35.90;;;;;;2252277;55;21056;-70
2023/06/14 04:26:21;;;;;;;3.05;1.70;;;16.40;36.40;;;;;;2531485;54;20931;-70
2023/06/14 04:28:49;;;;;;;3.58;1.70;;;16.40;35.80;;;;;;2549391;53;21854;-70
2023/06/14 04:31:16;;;;;;;3.78;2.10;;;16.40;35.70;;;;;;2541596;53;20992;-71
2023/06/14 04:33:46;;;;;;;6.18;1.87;;;16.40;35.70;;;;;;2537531;54;21024;-71
2023/06/14 04:36:13;;;;;;;7.07;2.50;;;16.40;35.70;;;;;;2300581;54;20981;-70
2023/06/14 04:38:39;;;;;;;5.43;2.03;;;16.40;35.90;;;;;;2306540;54;22382;-71
2023/06/14 04:41:06;;;;;;;4.07;1.62;;;16.40;35.90;;;;;;2503083;54;20968;-71
2023/06/14 04:43:37;;;;;;;3.70;1.92;;;16.50;36.00;;;;;;2300750;55;20952;-70
2023/06/14 04:46:05;;;;;;;5.30;1.58;;;16.50;36.00;;;;;;2303358;55;21027;-72
2023/06/14 04:48:32;;;;;;;3.17;1.58;;;16.50;36.00;;;;;;2541217;53;20991;-71
2023/06/14 04:50:58;;;;;;;3.92;1.85;;;16.60;36.10;;;;;;2286712;55;21668;-70
2023/06/14 04:53:28;;;;;;;6.20;1.92;;;16.50;36.10;;;;;;2542858;54;20945;-70
2023/06/14 04:55:55;;;;;;;3.22;1.95;;;16.50;36.30;;;;;;2303613;54;21565;-71
2023/06/14 04:58:21;;;;;;;5.35;1.90;;;16.50;36.30;;;;;;2310138;54;21437;-71
2023/06/14 05:00:48;;;;;;;5.62;2.47;;;16.50;36.40;;;;;;2548359;54;20997;-70
2023/06/14 05:03:20;;;;;;;3.85;2.35;;;16.50;36.70;;;;;;2549520;54;21675;-73
2023/06/14 05:05:48;;;;;;;4.68;2.70;;;16.60;37.20;;;;;;2309975;55;21927;-71
2023/06/14 05:08:15;;;;;;;4.53;2.22;;;16.40;37.00;;;;;;2548691;54;20937;-71
2023/06/14 05:10:41;;;;;;;3.80;2.05;;;16.70;37.20;;;;;;2272110;54;22131;-69
2023/06/14 05:13:11;;;;;;;3.42;2.03;;;16.70;37.20;;;;;;2509996;54;22204;-69
2023/06/14 05:15:39;;;;;;;3.83;2.12;;;16.70;37.20;;;;;;2511897;54;20944;-69
2023/06/14 05:18:09;;;;;;;5.30;2.45;;;16.70;37.40;;;;;;2504468;54;20957;-70
2023/06/14 05:20:37;;;;;;;4.47;2.30;;;16.70;37.50;;;;;;2534548;54;21891;-69
2023/06/14 05:23:03;;;;;;;4.32;2.30;;;16.80;37.50;;;;;;2536042;53;21395;-70
2023/06/14 05:25:30;;;;;;;4.40;2.53;;;16.80;37.70;;;;;;2547793;53;22045;-69
2023/06/14 05:27:58;;;;;;;3.78;2.05;;;16.90;37.90;;;;;;2564267;53;20943;-69
2023/06/14 05:30:26;;;;;;;4.55;2.25;;;16.90;38.00;;;;;;2581263;53;20958;-70
2023/06/14 05:32:52;;;;;;;3.50;2.00;;;17.00;38.20;;;;;;2336129;55;20947;-69
2023/06/14 05:35:19;;;;;;;3.67;2.10;;;17.10;38.20;;;;;;2582172;53;21498;-69
2023/06/14 05:37:45;;;;;;;5.05;2.00;;;17.10;38.10;;;;;;2326439;54;20992;-70
2023/06/14 05:40:12;;;;;;;4.78;2.20;;;17.10;38.00;;;;;;2528967;53;20964;-69
2023/06/14 05:42:38;;;;;;;3.53;1.95;;;17.20;37.90;;;;;;2565883;53;20943;-70
2023/06/14 05:45:09;;;;;;;3.90;2.10;;;17.20;38.00;;;;;;2336001;54;20997;-69
2023/06/14 05:47:35;;;;;;;3.45;1.95;;;17.40;38.30;;;;;;2581331;53;21273;-69
2023/06/14 05:50:01;;;;;;;3.42;2.00;;;17.40;38.10;;;;;;2336111;54;20908;-70
2023/06/14 05:52:29;;;;;;;3.83;2.15;;;17.40;38.00;;;;;;2579843;53;20891;-70
2023/06/14 05:54:57;;;;;;;3.28;1.92;;;17.50;38.10;;;;;;2556470;53;20952;-71
2023/06/14 05:57:24;;;;;;;4.18;2.20;;;17.50;38.10;;;;;;2558281;53;20962;-69
2023/06/14 05:59:51;;;;;;;3.25;1.92;;;17.60;38.10;;;;;;2336346;54;20919;-70
2023/06/14 06:02:17;;;;;;;3.55;2.17;;;17.70;38.20;;;;;;2581455;53;20976;-69
2023/06/14 06:04:43;;;;;;;5.30;2.08;;;17.70;38.10;;;;;;2323345;54;21750;-69
2023/06/14 06:07:10;;;;;;;4.15;2.20;;;17.80;38.20;;;;;;2561642;53;20951;-68
2023/06/14 06:09:38;;;;;;;4.07;2.20;;;17.90;38.30;;;;;;2566479;53;20916;-69
2023/06/14 06:12:08;;;;;;;3.80;2.35;;;17.90;38.40;;;;;;2579574;53;20967;-71
2023/06/14 06:14:34;;;;;;;6.87;2.60;;;18.00;38.70;;;;;;2580994;53;20971;-69
2023/06/14 06:17:00;;;;;;;5.47;3.08;;;18.00;38.70;;;;;;2335886;54;20900;-69
2023/06/14 06:19:27;;;;;;;3.55;2.25;;;18.10;38.90;;;;;;2579999;53;20872;-69
2023/06/14 06:21:55;;;;;;;4.15;2.42;;;18.20;38.90;;;;;;2569748;53;20980;-72
2023/06/14 06:24:21;;;;;;;4.05;2.37;;;18.30;39.00;;;;;;2302190;54;20991;-69
2023/06/14 06:26:48;;;;;;;5.32;2.75;;;18.30;39.00;;;;;;2325946;54;21023;-70
2023/06/14 06:29:14;;;;;;;4.12;2.28;;;18.40;39.00;;;;;;2581652;53;20951;-69
2023/06/14 06:31:45;;;;;;;5.85;2.85;;;18.50;39.10;;;;;;2319381;54;20992;-70
2023/06/14 06:34:11;;;;;;;3.85;2.30;;;18.60;39.30;;;;;;2570209;53;20971;-70
2023/06/14 06:36:39;;;;;;;4.05;2.30;;;18.60;39.10;;;;;;2580228;53;20952;-69
2023/06/14 06:39:09;;;;;;;4.50;1.92;;;18.70;39.10;;;;;;2547071;53;21423;-69
2023/06/14 06:41:39;;;;;;;4.15;2.37;;;18.80;39.20;;;;;;2566673;53;21345;-70
2023/06/14 06:44:06;;;;;;;3.62;2.22;;;18.90;39.10;;;;;;2580791;53;20975;-68
2023/06/14 06:46:33;;;;;;;4.85;2.33;;;19.00;39.00;;;;;;2336345;55;20930;-71
2023/06/14 06:49:00;;;;;;;4.45;2.15;;;19.00;38.90;;;;;;2580989;53;21770;-70
2023/06/14 06:51:27;;;;;;;7.37;2.65;;;19.20;39.00;;;;;;2545021;53;20960;-70
2023/06/14 06:53:54;;;;;;;4.43;2.12;;;19.30;39.00;;;;;;2326745;54;21216;-70
2023/06/14 06:56:23;;;;;;;3.70;2.03;;;19.30;38.90;;;;;;2569794;53;20956;-70
2023/06/14 06:58:50;;;;;;;4.12;2.15;;;19.40;38.80;;;;;;2325321;54;21003;-70
2023/06/14 07:01:20;;;;;;;3.97;2.50;;;19.50;39.00;;;;;;2335674;54;20966;-69
2023/06/14 07:03:47;;;;;;;3.45;2.10;;;19.60;38.90;;;;;;2309953;54;20948;-71
2023/06/14 07:06:14;;;;;;;3.95;2.08;;;19.60;38.70;;;;;;2581410;53;21860;-70
2023/06/14 07:08:49;;;;;;;5.35;2.20;;;19.70;38.70;;;;;;2336229;55;20923;-71
2023/06/14 07:11:16;;;;;;;3.72;2.05;;;19.80;38.80;;;;;;2336829;54;20979;-69
2023/06/14 07:13:42;;;;;;;3.72;2.05;;;19.90;39.00;;;;;;2553558;53;21505;-69
2023/06/14 07:16:08;;;;;;;4.10;2.25;;;20.00;38.90;;;;;;2554005;53;20974;-71
2023/06/14 07:18:35;;;;;;;3.65;2.22;;;20.10;38.90;;;;;;2337063;54;21412;-71
2023/06/14 07:21:01;;;;;;;4.28;2.25;;;20.20;38.90;;;;;;2338230;54;21443;-71
2023/06/14 07:23:31;;;;;;;4.00;2.30;;;20.30;38.80;;;;;;2581232;53;21387;-71
2023/06/14 07:25:57;;;;;;;4.15;2.20;;;20.40;38.90;;;;;;2581382;53;20982;-69
2023/06/14 07:28:24;;;;;;;4.62;2.28;;;20.50;38.90;;;;;;2322964;54;21052;-71
2023/06/14 07:30:50;;;;;;;3.65;2.10;;;20.60;38.90;;;;;;2566125;53;20923;-70
2023/06/14 07:33:18;;;;;;;5.20;2.67;;;20.70;38.90;;;;;;2581490;53;20971;-72
2023/06/14 07:35:45;;;;;;;4.50;2.42;;;20.80;38.90;;;;;;2580169;53;20920;-69
2023/06/14 07:38:12;;;;;;;5.15;2.28;;;20.90;38.90;;;;;;2581253;53;20924;-69
2023/06/14 07:40:41;;;;;;;4.15;2.28;;;20.90;38.80;;;;;;2336156;55;20951;-71
2023/06/14 07:43:09;;;;;;;3.72;2.28;;;21.10;38.80;;;;;;2538048;54;20932;-72
2023/06/14 07:45:36;;;;;;;3.80;2.08;;;21.10;38.60;;;;;;2569009;53;21441;-71
2023/06/14 07:48:03;;;;;;;3.85;2.03;;;21.30;39.30;;;;;;2566927;53;21087;-70
2023/06/14 07:50:30;;;;;;;3.45;2.03;;;21.40;38.80;;;;;;2554450;53;20937;-69
2023/06/14 07:52:56;;;;;;;3.72;2.22;;;21.50;38.70;;;;;;2539241;53;21499;-72
2023/06/14 07:55:25;;;;;;;4.18;2.17;;;21.60;38.60;;;;;;2550429;53;20969;-70
2023/06/14 07:57:55;;;;;;;4.03;2.45;;;21.70;38.60;;;;;;2299626;56;20945;-72
2023/06/14 08:00:21;;;;;;;4.60;2.25;;;21.80;38.60;;;;;;2277489;55;20939;-71
2023/06/14 08:02:47;;;;;;;6.03;2.20;;;21.90;38.50;;;;;;2537111;54;20936;-70
2023/06/14 08:05:14;;;;;;;4.12;2.20;;;22.00;38.40;;;;;;2300966;55;21002;-67
2023/06/14 08:07:48;;;;;;;5.50;2.47;;;22.10;38.40;;;;;;2545517;53;20912;-67
2023/06/14 08:10:14;;;;;;;8.20;2.50;;;22.20;38.40;;;;;;2576355;53;21003;-69
2023/06/14 08:12:40;;;;;;;5.12;2.60;;;22.20;38.10;;;;;;2581184;53;20955;-72
2023/06/14 08:15:07;;;;;;;4.07;2.10;;;22.30;38.10;;;;;;2336760;54;20940;-70
2023/06/14 08:17:39;;;;;;;3.17;1.83;;;22.40;38.30;;;;;;2580020;53;21020;-71
2023/06/14 08:20:07;;;;;;;4.20;2.50;;;22.50;38.20;;;;;;2575814;53;20913;-70
2023/06/14 08:22:35;;;;;;;4.15;2.20;;;22.60;38.20;;;;;;2575030;53;20996;-71
2023/06/14 08:25:01;;;;;;;3.72;2.30;;;22.70;38.40;;;;;;2576931;53;20971;-71
2023/06/14 08:27:28;;;;;;;3.17;1.75;;;22.80;38.40;;;;;;2549918;53;21739;-72
2023/06/14 08:29:55;;;;;;;4.70;2.42;;;22.90;38.40;;;;;;2559556;53;22048;-71
2023/06/14 08:32:22;;;;;;;4.87;2.10;;;23.00;38.40;;;;;;2566143;53;20990;-72
2023/06/14 08:34:49;;;;;;;4.32;1.92;;;23.10;38.30;;;;;;2580674;53;20959;-72
2023/06/14 08:37:22;;;;;;;3.55;2.17;;;23.20;38.30;;;;;;2337252;54;20935;-71
2023/06/14 08:39:48;;;;;;;4.15;2.47;;;23.30;38.30;;;;;;2335892;55;20983;-71
2023/06/14 08:42:14;;;;;;;4.95;1.90;;;23.40;38.30;;;;;;2581594;53;20928;-71
2023/06/14 08:44:49;;;;;;;3.30;1.75;;;23.50;38.10;;;;;;2334270;54;20991;-70
2023/06/14 08:47:17;;;;;;;5.15;2.35;;;23.60;38.10;;;;;;2572336;53;21056;-71
2023/06/14 08:49:47;;;;;;;3.80;2.35;;;23.70;38.10;;;;;;2313820;54;20919;-70
2023/06/14 08:52:13;;;;;;;3.42;1.90;;;23.80;38.40;;;;;;2581989;53;20908;-72
2023/06/14 08:54:43;;;;;;;3.78;2.05;;;23.90;38.30;;;;;;2581048;53;20912;-70
2023/06/14 08:57:15;;;;;;;3.67;1.95;;;24.00;38.10;;;;;;2335372;54;21003;-69
2023/06/14 08:59:49;;;;;;;3.75;2.15;;;24.10;37.90;;;;;;2536652;54;20984;-69
2023/06/14 09:02:17;;;;;;;3.92;2.10;;;24.20;37.70;;;;;;2537695;54;20959;-69
2023/06/14 09:04:44;;;;;;;5.10;1.90;;;24.30;37.80;;;;;;2557712;53;20999;-70
2023/06/14 09:07:12;;;;;;;3.00;1.52;;;24.40;37.90;;;;;;2580316;53;21007;-70
2023/06/14 09:09:40;;;;;;;6.15;2.22;;;24.50;37.90;;;;;;2580544;53;20900;-69
2023/06/14 09:12:10;;;;;;;3.37;2.10;;;24.60;37.70;;;;;;2336358;54;20975;-69
2023/06/14 09:14:38;;;;;;;3.55;2.00;;;24.70;37.40;;;;;;2580996;53;21031;-68
2023/06/14 09:17:05;;;;;;;3.55;2.12;;;24.80;37.30;;;;;;2581303;53;20995;-70
2023/06/14 09:19:31;;;;;;;4.32;2.35;;;24.90;37.20;;;;;;2581419;53;20939;-69
2023/06/14 09:21:59;;;;;;;4.50;2.20;;;25.00;37.10;;;;;;2580384;53;20907;-70
2023/06/14 09:24:26;;;;;;;6.35;2.30;;;25.10;37.00;;;;;;2322906;54;20936;-68
2023/06/14 09:26:52;;;;;;;4.60;2.22;;;25.20;36.90;;;;;;2564732;53;20987;-69
2023/06/14 09:29:19;;;;;;;3.83;2.10;;;25.30;36.80;;;;;;2581567;53;20944;-70
2023/06/14 09:31:46;;;;;;;3.90;2.15;;;25.40;36.90;;;;;;2580619;53;21678;-68
2023/06/14 09:34:13;;;;;;;4.45;2.00;;;25.50;36.90;;;;;;2535693;54;20960;-70
2023/06/14 09:36:44;;;;;;;3.85;1.90;;;25.60;36.80;;;;;;2537277;54;21048;-69
2023/06/14 09:39:10;;;;;;;3.60;2.12;;;25.70;36.80;;;;;;2299837;55;20940;-69
2023/06/14 09:41:38;;;;;;;3.47;1.98;;;25.80;36.70;;;;;;2296187;54;20955;-70
2023/06/14 09:44:05;;;;;;;4.82;2.08;;;25.90;36.60;;;;;;2527901;54;20904;-69
2023/06/14 09:46:35;;;;;;;4.40;2.22;;;26.00;36.60;;;;;;2520815;53;21014;-70
2023/06/14 09:49:02;;;;;;;6.82;2.10;;;26.00;36.30;;;;;;2305265;54;21870;-70
2023/06/14 09:51:31;;;;;;;4.57;2.15;;;26.20;36.30;;;;;;2300315;56;21021;-71
2023/06/14 09:54:04;;;;;;;3.45;2.15;;;26.30;36.20;;;;;;2299766;55;21019;-69
2023/06/14 09:56:39;;;;;;;4.72;2.00;;;26.30;35.70;;;;;;2537936;54;20974;-71
2023/06/14 09:59:07;;;;;;;4.40;2.33;;;26.40;35.60;;;;;;2541272;53;20999;-70
2023/06/14 10:01:35;;;;;;;3.75;2.00;;;26.50;35.40;;;;;;2309372;55;20937;-69
2023/06/14 10:04:05;;;;;;;3.90;2.30;;;26.60;35.20;;;;;;2558062;53;21420;-70
2023/06/14 10:06:37;;;;;;;3.87;2.03;;;26.80;35.50;;;;;;2320517;55;21153;-69
2023/06/14 10:09:04;;;;;;;3.30;2.00;;;26.80;34.90;;;;;;2541323;53;20997;-69
2023/06/14 10:11:30;;;;;;;3.50;2.15;;;26.90;35.00;;;;;;2581770;53;20956;-69
2023/06/14 10:13:57;;;;;;;3.83;2.20;;;27.00;34.80;;;;;;2551446;53;20988;-68
2023/06/14 10:17:09;;;;;;;4.35;2.00;;;27.00;34.60;;;;;;2537971;53;21015;-70
2023/06/14 10:20:13;;;;;;;4.05;2.28;;;27.20;34.40;;;;;;2335791;54;20956;-70
2023/06/14 10:23:07;;;;;;;3.15;1.80;;;27.20;34.10;;;;;;2335919;54;20934;-69
2023/06/14 10:25:36;;;;;;;3.90;1.83;;;27.30;33.90;;;;;;2336212;54;20975;-70
2023/06/14 10:28:19;;;;;;;4.35;2.22;;;27.40;34.50;;;;;;2581133;53;21014;-70
2023/06/14 10:31:07;;;;;;;3.55;1.83;;;27.50;33.20;;;;;;2335289;55;21011;-69
2023/06/14 10:35:08;;;;;;;4.62;2.15;;;27.60;33.10;;;;;;2579982;53;21027;-70
2023/06/14 10:37:36;;;;;;;3.85;1.85;;;27.70;33.10;;;;;;2544921;53;20984;-68
2023/06/14 10:40:04;;;;;;;3.35;2.08;;;27.80;32.60;;;;;;2581814;53;20900;-69
2023/06/14 10:42:33;;;;;;;3.40;2.10;;;27.80;32.30;;;;;;2553366;53;21797;-70
2023/06/14 10:45:00;;;;;;;3.60;2.00;;;27.90;32.40;;;;;;2329935;54;21940;-70
2023/06/14 10:48:31;;;;;;;4.00;1.80;;;28.00;32.60;;;;;;2581526;53;21038;-71
2023/06/14 10:51:02;;;;;;;3.10;1.70;;;28.10;32.40;;;;;;2335769;54;21507;-72
2023/06/14 10:53:28;;;;;;;3.33;1.73;;;28.10;32.40;;;;;;2579888;53;20917;-74
2023/06/14 10:55:56;;;;;;;3.58;1.98;;;28.20;32.40;;;;;;2335082;55;21019;-72
2023/06/14 10:58:23;;;;;;;3.10;1.90;;;28.30;32.20;;;;;;2335448;55;21127;-74
2023/06/14 11:00:49;;;;;;;3.37;1.80;;;28.40;32.10;;;;;;2335164;54;21743;-73
2023/06/14 11:04:16;;;;;;;3.30;2.03;;;28.40;31.90;;;;;;2555944;53;21692;-73
2023/06/14 11:06:47;;;;;;;3.17;1.83;;;28.60;31.40;;;;;;2575772;53;20990;-73
2023/06/14 11:09:44;;;;;;;4.72;2.20;;;28.60;31.10;;;;;;2334509;54;20987;-73
2023/06/14 11:12:11;;;;;;;3.17;1.77;;;28.70;30.50;;;;;;2579618;53;20912;-72
2023/06/14 11:14:39;;;;;;;3.67;1.90;;;28.80;31.10;;;;;;2580083;53;20904;-74
2023/06/14 11:17:05;;;;;;;3.45;2.12;;;28.80;30.90;;;;;;2336460;55;20903;-74
2023/06/14 11:19:36;;;;;;;3.20;2.05;;;28.90;30.80;;;;;;2580082;53;21011;-72
2023/06/14 11:22:02;;;;;;;3.50;1.87;;;28.90;30.40;;;;;;2336409;55;21925;-74
2023/06/14 11:24:31;;;;;;;3.30;2.10;;;29.00;30.20;;;;;;2581579;53;21439;-74
2023/06/14 11:26:57;;;;;;;3.50;1.70;;;29.00;30.20;;;;;;2335674;54;20919;-74
2023/06/14 11:29:24;;;;;;;4.60;2.00;;;29.00;30.00;;;;;;2580981;53;21455;-72
2023/06/14 11:31:50;;;;;;;3.28;2.00;;;29.10;29.90;;;;;;2580253;53;20935;-73
2023/06/14 11:34:17;;;;;;;3.83;2.00;;;29.10;29.90;;;;;;2567163;53;21625;-73
2023/06/14 11:36:46;;;;;;;5.10;2.15;;;29.10;29.70;;;;;;2317210;54;20984;-73
2023/06/14 11:39:13;;;;;;;3.90;2.00;;;29.20;29.60;;;;;;2329789;54;21450;-76
2023/06/14 11:41:44;;;;;;;5.85;1.92;;;29.20;29.40;;;;;;2304108;54;21072;-72
2023/06/14 11:44:10;;;;;;;3.10;1.90;;;29.20;29.20;;;;;;2324011;54;21743;-74
2023/06/14 11:46:37;;;;;;;3.70;2.00;;;29.20;29.10;;;;;;2580575;53;21550;-73
2023/06/14 11:49:04;;;;;;;3.83;2.03;;;29.20;28.90;;;;;;2581041;53;20908;-72
2023/06/14 11:51:32;;;;;;;3.47;2.05;;;29.20;28.90;;;;;;2336618;55;20920;-74
2023/06/14 11:53:58;;;;;;;3.50;2.00;;;29.20;28.90;;;;;;2580635;53;21824;-72
2023/06/14 11:56:27;;;;;;;4.78;2.35;;;29.30;28.90;;;;;;2581838;53;21768;-73
2023/06/14 11:58:56;;;;;;;3.62;1.90;;;29.30;28.80;;;;;;2580954;53;20955;-72
2023/06/14 12:01:24;;;;;;;3.15;1.85;;;29.30;28.70;;;;;;2336482;55;20947;-72
2023/06/14 12:03:52;;;;;;;5.65;1.90;;;29.30;28.80;;;;;;2580864;53;21010;-74
2023/06/14 12:06:31;;;;;;;3.30;1.80;;;29.30;29.00;;;;;;2336018;55;21011;-72
2023/06/14 12:08:58;;;;;;;4.43;1.90;;;29.40;28.70;;;;;;2537700;54;20944;-74
2023/06/14 12:11:27;;;;;;;3.30;1.62;;;29.40;28.90;;;;;;2300540;55;21910;-73
2023/06/14 12:13:56;;;;;;;3.65;1.77;;;29.40;28.80;;;;;;2299779;55;21834;-73
2023/06/14 12:16:30;;;;;;;3.67;1.70;;;29.50;29.00;;;;;;2537179;54;20999;-72
2023/06/14 12:19:15;;;;;;;2.87;1.58;;;29.60;28.80;;;;;;2563115;53;21068;-73
2023/06/14 12:21:42;;;;;;;4.10;2.10;;;29.60;28.70;;;;;;2569570;53;21045;-73
2023/06/14 12:24:12;;;;;;;4.65;2.08;;;29.70;28.60;;;;;;2569401;53;20962;-74
2023/06/14 12:26:39;;;;;;;3.20;1.87;;;29.70;28.80;;;;;;2569747;53;20917;-72
2023/06/14 12:29:07;;;;;;;3.67;1.90;;;29.80;28.20;;;;;;2570322;53;20985;-72
2023/06/14 12:31:33;;;;;;;3.47;1.90;;;29.70;27.90;;;;;;2326760;55;20950;-73
2023/06/14 12:34:02;;;;;;;4.97;2.17;;;29.80;27.80;;;;;;2569677;53;20961;-74
2023/06/14 12:36:29;;;;;;;4.75;1.90;;;29.70;27.70;;;;;;2551159;53;21118;-74
2023/06/14 12:38:55;;;;;;;2.78;1.40;;;29.70;27.60;;;;;;2304179;55;22157;-74
2023/06/14 12:41:22;;;;;;;4.25;2.00;;;29.70;27.50;;;;;;2538005;54;21490;-74
2023/06/14 12:43:48;;;;;;;3.50;1.98;;;29.70;27.40;;;;;;2300190;55;21047;-72
2023/06/14 12:46:15;;;;;;;6.28;1.77;;;29.70;27.20;;;;;;2300397;55;20960;-73
2023/06/14 12:48:41;;;;;;;3.12;1.85;;;29.70;27.20;;;;;;2537406;54;20971;-73
2023/06/14 12:51:07;;;;;;;3.55;2.00;;;29.80;27.20;;;;;;2536825;54;22060;-74
2023/06/14 12:53:35;;;;;;;3.78;1.85;;;29.70;27.20;;;;;;2535899;54;21382;-71
2023/06/14 12:56:02;;;;;;;3.37;1.80;;;29.70;27.20;;;;;;2537453;54;21027;-73
2023/06/14 12:58:30;;;;;;;3.62;1.92;;;29.70;27.30;;;;;;2512711;54;20953;-74
2023/06/14 13:00:56;;;;;;;3.05;1.75;;;29.70;27.20;;;;;;2308703;55;20989;-74